Time;durP1;ratioP1;P1;durP2;ratioP2;P2;SDS_P1;SDS_P2;PMS_P1;PMS_P2;Temp;Humidity;BMP_temperature;BMP_pressure;BME280_temperature;BME280_humidity;BME280_pressure;Samples;Min_cycle;Max_cycle;Signal;HPM_P1;HPM_P2
2024/03/03 00:02:23;;;;;;;11.57;4.73;;;25.30;71.30;;;;;;5046960;28;20699;-71
2024/03/03 00:04:50;;;;;;;12.03;4.63;;;25.20;71.10;;;;;;5044363;28;20278;-73
2024/03/03 00:07:18;;;;;;;8.80;4.50;;;25.20;71.70;;;;;;5049236;28;20275;-74
2024/03/03 00:09:48;;;;;;;11.77;5.03;;;25.20;72.50;;;;;;5046990;28;20642;-75
2024/03/03 00:12:15;;;;;;;9.07;3.87;;;25.40;71.80;;;;;;5046138;28;20582;-74
2024/03/03 00:14:44;;;;;;;10.40;4.07;;;25.60;70.10;;;;;;5047849;28;20187;-73
2024/03/03 00:17:12;;;;;;;14.43;4.60;;;25.60;71.40;;;;;;5049746;28;20183;-74
2024/03/03 00:19:41;;;;;;;12.77;4.93;;;25.60;71.60;;;;;;5047597;28;20542;-72
2024/03/03 00:22:08;;;;;;;10.33;4.70;;;25.60;70.70;;;;;;5044172;28;20183;-75
2024/03/03 00:24:39;;;;;;;8.63;4.13;;;25.80;70.80;;;;;;5047638;28;20295;-71
2024/03/03 00:27:06;;;;;;;10.47;4.57;;;25.80;70.10;;;;;;5049559;28;20183;-73
2024/03/03 00:29:33;;;;;;;10.93;5.43;;;25.90;70.20;;;;;;5040868;28;20534;-71
2024/03/03 00:32:01;;;;;;;8.20;4.73;;;26.00;70.40;;;;;;5045762;28;20224;-71
2024/03/03 00:34:28;;;;;;;10.00;4.53;;;26.30;69.60;;;;;;5029245;28;20635;-71
2024/03/03 00:36:56;;;;;;;11.40;4.33;;;26.30;68.60;;;;;;5048115;28;20671;-73
2024/03/03 00:39:23;;;;;;;9.27;5.03;;;26.20;67.40;;;;;;5047579;28;20183;-73
2024/03/03 00:41:50;;;;;;;9.27;4.40;;;26.10;68.90;;;;;;5048492;28;20184;-74
2024/03/03 00:44:18;;;;;;;9.93;4.53;;;26.20;69.20;;;;;;5040395;28;20235;-72
2024/03/03 00:46:46;;;;;;;14.97;5.07;;;26.30;68.90;;;;;;5048195;28;20330;-73
2024/03/03 00:49:15;;;;;;;12.23;4.30;;;26.50;68.20;;;;;;5049726;28;20195;-72
2024/03/03 00:51:43;;;;;;;10.93;4.10;;;26.40;67.70;;;;;;5048162;28;20216;-73
2024/03/03 00:54:10;;;;;;;8.87;4.60;;;26.70;67.30;;;;;;5050426;28;20649;-72
2024/03/03 00:56:38;;;;;;;10.47;4.70;;;26.30;67.20;;;;;;5049682;28;20187;-71
2024/03/03 00:59:06;;;;;;;10.97;4.83;;;26.10;68.50;;;;;;5051241;28;20533;-75
2024/03/03 01:01:34;;;;;;;10.20;4.87;;;26.40;67.80;;;;;;5050779;28;20188;-72
2024/03/03 01:04:01;;;;;;;9.17;4.47;;;26.80;67.60;;;;;;5041800;28;20216;-71
2024/03/03 01:06:28;;;;;;;9.97;4.73;;;26.80;65.60;;;;;;5050822;28;20176;-71
2024/03/03 01:08:55;;;;;;;8.97;5.07;;;26.80;66.00;;;;;;5046343;28;20200;-72
2024/03/03 01:11:23;;;;;;;8.20;4.63;;;26.50;66.80;;;;;;5045650;28;20172;-73
2024/03/03 01:13:50;;;;;;;11.37;4.97;;;26.60;66.10;;;;;;5046945;28;20257;-72
2024/03/03 01:16:18;;;;;;;9.27;5.23;;;26.40;65.80;;;;;;5047297;28;20180;-71
2024/03/03 01:18:45;;;;;;;8.50;5.40;;;26.30;66.30;;;;;;5048920;28;21353;-74
2024/03/03 01:21:12;;;;;;;10.47;5.43;;;26.40;65.40;;;;;;5048463;28;20175;-71
2024/03/03 01:23:40;;;;;;;8.00;4.77;;;26.60;66.10;;;;;;5045415;28;20176;-74
2024/03/03 01:26:07;;;;;;;8.83;5.20;;;26.80;65.20;;;;;;5049534;28;20182;-72
2024/03/03 01:28:35;;;;;;;8.63;5.63;;;27.20;65.20;;;;;;5046532;28;20526;-71
2024/03/03 01:31:02;;;;;;;11.97;5.73;;;27.30;64.50;;;;;;5049054;28;20238;-71
2024/03/03 01:33:29;;;;;;;11.10;5.83;;;27.30;64.60;;;;;;5049203;28;20216;-72
2024/03/03 01:35:56;;;;;;;9.57;4.97;;;27.60;64.80;;;;;;5049240;28;20199;-74
2024/03/03 01:38:24;;;;;;;10.67;5.20;;;27.60;64.40;;;;;;5030817;28;20192;-71
2024/03/03 01:40:52;;;;;;;7.67;5.07;;;27.80;62.80;;;;;;5049420;28;20180;-72
2024/03/03 01:43:19;;;;;;;9.13;5.40;;;27.70;63.30;;;;;;5046320;28;20184;-70
2024/03/03 01:45:46;;;;;;;9.07;4.77;;;27.40;63.60;;;;;;5049527;28;20215;-72
2024/03/03 01:48:14;;;;;;;11.93;5.23;;;27.40;64.70;;;;;;5050941;28;20222;-71
2024/03/03 01:50:42;;;;;;;8.40;4.93;;;27.50;63.70;;;;;;5045937;28;20176;-73
2024/03/03 01:53:12;;;;;;;13.27;5.80;;;27.70;64.00;;;;;;5046687;28;20281;-73
2024/03/03 01:55:41;;;;;;;10.97;5.27;;;27.20;64.50;;;;;;5047644;28;21472;-73
2024/03/03 01:58:11;;;;;;;11.83;5.47;;;27.00;65.80;;;;;;5045670;28;20181;-74
2024/03/03 02:00:38;;;;;;;10.23;5.17;;;27.10;65.70;;;;;;5047020;28;20229;-72
2024/03/03 02:03:08;;;;;;;9.50;5.00;;;27.00;65.70;;;;;;5031887;28;20191;-74
2024/03/03 02:05:38;;;;;;;9.23;5.00;;;27.20;65.40;;;;;;5045050;28;20184;-73
2024/03/03 02:08:06;;;;;;;8.73;5.73;;;27.30;65.40;;;;;;5050920;28;20191;-74
2024/03/03 02:10:35;;;;;;;8.03;5.13;;;27.60;64.70;;;;;;5048030;28;20172;-74
2024/03/03 02:13:03;;;;;;;9.53;5.50;;;27.50;63.90;;;;;;5045926;28;20216;-74
2024/03/03 02:15:32;;;;;;;8.37;5.20;;;28.20;62.90;;;;;;5047697;28;20176;-73
2024/03/03 02:17:59;;;;;;;8.47;4.60;;;28.30;60.90;;;;;;5033270;28;20180;-74
2024/03/03 02:20:27;;;;;;;8.60;5.23;;;28.30;61.00;;;;;;5044880;28;20179;-72
2024/03/03 02:22:55;;;;;;;16.50;5.43;;;28.40;61.20;;;;;;5029062;28;20567;-75
2024/03/03 02:25:23;;;;;;;8.73;4.90;;;28.90;59.60;;;;;;5041193;28;20188;-74
2024/03/03 02:27:50;;;;;;;13.77;4.90;;;28.50;59.60;;;;;;5048021;28;20270;-73
2024/03/03 02:30:17;;;;;;;9.57;4.70;;;28.90;58.90;;;;;;5043945;28;20681;-76
2024/03/03 02:32:46;;;;;;;7.73;4.70;;;29.20;56.00;;;;;;5046337;28;20220;-74
2024/03/03 02:35:14;;;;;;;7.97;4.97;;;29.40;55.10;;;;;;5041314;28;20181;-73
2024/03/03 02:37:47;;;;;;;8.67;5.37;;;29.60;56.00;;;;;;5045353;28;20241;-72
2024/03/03 02:40:15;;;;;;;10.20;4.60;;;29.30;56.00;;;;;;5044123;28;20187;-74
2024/03/03 02:42:42;;;;;;;7.77;4.10;;;29.60;55.20;;;;;;5043145;28;20191;-77
2024/03/03 02:45:12;;;;;;;6.47;4.03;;;30.30;54.10;;;;;;5045682;28;20184;-75
2024/03/03 02:47:40;;;;;;;4.33;3.17;;;30.40;52.40;;;;;;5048028;28;20259;-73
2024/03/03 02:50:08;;;;;;;10.67;3.70;;;30.70;50.90;;;;;;5043216;28;20187;-73
2024/03/03 02:52:35;;;;;;;7.17;4.10;;;30.50;50.70;;;;;;5048730;28;20211;-74
2024/03/03 02:55:03;;;;;;;5.72;2.90;;;30.40;49.30;;;;;;5048992;28;20180;-73
2024/03/03 02:57:30;;;;;;;7.80;3.50;;;30.80;48.10;;;;;;5045194;28;20279;-74
2024/03/03 02:59:57;;;;;;;4.17;2.77;;;30.90;48.60;;;;;;5044987;28;20177;-72
2024/03/03 03:02:24;;;;;;;5.70;3.53;;;31.00;47.60;;;;;;5041377;28;20175;-75
2024/03/03 03:04:53;;;;;;;8.23;3.37;;;31.00;48.00;;;;;;5044187;28;20176;-73
2024/03/03 03:07:20;;;;;;;5.53;3.28;;;31.20;47.40;;;;;;5046104;28;20264;-72
2024/03/03 03:09:48;;;;;;;5.43;3.13;;;31.50;46.80;;;;;;5046039;28;20298;-76
2024/03/03 03:12:15;;;;;;;5.25;3.47;;;31.30;46.90;;;;;;5047793;28;20207;-74
2024/03/03 03:14:43;;;;;;;7.82;3.05;;;31.30;47.00;;;;;;5048496;28;20558;-73
2024/03/03 03:17:10;;;;;;;6.13;3.00;;;31.30;46.20;;;;;;5044338;28;20191;-75
2024/03/03 03:19:38;;;;;;;7.93;3.75;;;31.40;46.40;;;;;;5042978;28;20184;-74
2024/03/03 03:22:06;;;;;;;6.60;3.30;;;31.90;45.60;;;;;;5043417;28;20180;-77
2024/03/03 03:24:34;;;;;;;7.63;3.40;;;32.30;45.10;;;;;;5030071;28;20234;-75
2024/03/03 03:27:01;;;;;;;8.10;3.70;;;32.70;44.20;;;;;;5030852;28;20176;-73
2024/03/03 03:29:30;;;;;;;6.57;3.22;;;32.90;43.10;;;;;;5046398;28;20203;-72
2024/03/03 03:31:58;;;;;;;6.38;2.90;;;32.90;41.80;;;;;;5042939;28;20238;-76
2024/03/03 03:34:28;;;;;;;7.97;3.17;;;32.60;43.40;;;;;;5045796;28;20266;-74
2024/03/03 03:36:57;;;;;;;5.28;3.13;;;32.30;43.60;;;;;;5043026;28;20176;-74
2024/03/03 03:39:24;;;;;;;5.05;2.97;;;32.50;43.40;;;;;;5040079;28;20617;-74
2024/03/03 03:41:54;;;;;;;4.15;2.90;;;32.60;43.50;;;;;;5044759;28;20203;-73
2024/03/03 03:44:22;;;;;;;4.38;2.97;;;32.90;42.60;;;;;;5046116;28;20653;-73
2024/03/03 03:46:51;;;;;;;7.95;2.28;;;33.50;40.80;;;;;;5028543;28;20219;-73
2024/03/03 03:49:18;;;;;;;3.85;2.47;;;33.60;38.50;;;;;;5049908;28;20259;-76
2024/03/03 03:51:47;;;;;;;4.30;2.40;;;33.60;38.00;;;;;;5048173;28;20306;-74
2024/03/03 03:54:14;;;;;;;3.45;2.22;;;33.50;38.20;;;;;;5033220;28;20191;-78
2024/03/03 03:56:41;;;;;;;3.88;2.28;;;33.90;38.20;;;;;;5044984;28;20172;-72
2024/03/03 03:59:09;;;;;;;8.00;2.63;;;34.10;38.10;;;;;;5049503;28;20936;-74
2024/03/03 04:01:36;;;;;;;5.03;2.83;;;34.80;37.50;;;;;;5052363;28;20252;-74
2024/03/03 04:04:04;;;;;;;5.85;2.90;;;35.30;36.70;;;;;;5050212;28;20180;-74
2024/03/03 04:06:31;;;;;;;7.10;2.45;;;35.30;35.90;;;;;;5047245;28;20560;-72
2024/03/03 04:09:01;;;;;;;6.00;2.40;;;34.90;36.20;;;;;;5050060;28;20250;-74
2024/03/03 04:11:28;;;;;;;3.90;2.30;;;35.00;36.10;;;;;;5044796;28;20190;-74
2024/03/03 04:13:55;;;;;;;5.15;2.20;;;35.30;35.60;;;;;;5051181;28;20634;-73
2024/03/03 04:16:22;;;;;;;6.30;2.72;;;35.90;35.10;;;;;;5048937;28;20245;-72
2024/03/03 04:18:50;;;;;;;5.85;3.00;;;34.90;36.50;;;;;;5047565;28;20184;-72
2024/03/03 04:21:17;;;;;;;9.57;3.00;;;34.60;39.30;;;;;;5051590;28;20180;-74
2024/03/03 04:23:47;;;;;;;11.35;2.85;;;34.40;45.70;;;;;;5049922;28;20195;-75
2024/03/03 04:26:15;;;;;;;10.93;3.05;;;34.50;46.50;;;;;;5052407;28;20183;-73
2024/03/03 04:28:43;;;;;;;15.00;3.25;;;34.00;48.20;;;;;;5050344;28;20246;-73
2024/03/03 04:31:10;;;;;;;7.90;2.60;;;34.30;46.40;;;;;;5050587;28;20304;-77
2024/03/03 04:33:38;;;;;;;9.02;3.28;;;34.90;44.70;;;;;;5043156;28;20216;-72
2024/03/03 04:36:12;;;;;;;8.73;2.97;;;33.70;49.10;;;;;;5034047;28;20211;-71
2024/03/03 04:38:42;;;;;;;11.05;2.97;;;33.00;51.20;;;;;;5033011;28;20270;-74
2024/03/03 04:41:19;;;;;;;11.63;2.75;;;33.40;50.90;;;;;;5049231;28;20164;-71
2024/03/03 04:43:47;;;;;;;11.20;3.38;;;33.40;50.50;;;;;;5049459;28;20669;-72
2024/03/03 04:46:14;;;;;;;14.32;3.50;;;31.40;55.60;;;;;;5050879;28;20199;-71
2024/03/03 04:48:42;;;;;;;9.85;2.95;;;31.30;56.60;;;;;;5048961;28;20642;-70
2024/03/03 04:51:10;;;;;;;11.07;3.63;;;31.60;55.80;;;;;;5047556;28;20176;-73
2024/03/03 04:53:39;;;;;;;14.95;4.28;;;32.00;54.60;;;;;;5041823;28;20215;-71
2024/03/03 04:56:06;;;;;;;13.70;3.30;;;32.60;53.20;;;;;;5050781;28;20171;-73
2024/03/03 04:58:33;;;;;;;11.00;3.60;;;33.00;52.60;;;;;;5044139;28;20187;-74
2024/03/03 05:01:01;;;;;;;10.77;2.67;;;32.80;52.70;;;;;;5050135;28;20237;-72
2024/03/03 05:03:28;;;;;;;11.75;3.65;;;32.80;51.90;;;;;;5050622;28;20184;-71
2024/03/03 05:05:55;;;;;;;9.95;3.10;;;32.80;52.40;;;;;;5043466;28;20187;-71
2024/03/03 05:08:23;;;;;;;9.60;3.15;;;32.80;53.10;;;;;;5040302;28;20667;-72
2024/03/03 05:10:50;;;;;;;11.55;2.83;;;32.50;54.10;;;;;;5044223;28;20287;-71
2024/03/03 05:13:18;;;;;;;14.23;3.15;;;33.00;53.10;;;;;;5048434;28;20211;-72
2024/03/03 05:15:45;;;;;;;10.52;2.80;;;32.30;55.30;;;;;;5046059;28;20189;-73
2024/03/03 05:18:12;;;;;;;10.65;2.95;;;33.20;52.70;;;;;;5047637;28;20548;-73
2024/03/03 05:20:40;;;;;;;13.85;3.28;;;33.10;52.30;;;;;;5045008;28;20187;-72
2024/03/03 05:23:07;;;;;;;13.32;3.47;;;33.00;52.40;;;;;;5041967;28;20176;-72
2024/03/03 05:25:35;;;;;;;17.35;3.17;;;32.90;53.60;;;;;;5044362;28;20184;-71
2024/03/03 05:28:03;;;;;;;13.05;3.28;;;32.60;54.30;;;;;;5050062;28;20263;-70
2024/03/03 05:30:36;;;;;;;11.27;3.47;;;32.80;54.30;;;;;;5041416;28;20228;-73
2024/03/03 05:33:12;;;;;;;14.13;3.50;;;33.30;53.00;;;;;;5041129;28;20316;-72
2024/03/03 05:35:40;;;;;;;11.52;2.97;;;33.20;52.90;;;;;;5048829;28;20704;-71
2024/03/03 05:38:07;;;;;;;10.18;3.15;;;33.50;52.20;;;;;;5048312;28;20187;-72
2024/03/03 05:40:34;;;;;;;14.93;3.42;;;34.00;51.10;;;;;;5047621;28;20254;-75
2024/03/03 05:43:04;;;;;;;8.10;3.00;;;33.80;50.40;;;;;;5042059;28;20186;-70
2024/03/03 05:45:32;;;;;;;10.07;2.90;;;32.90;52.90;;;;;;5033236;28;20215;-71
2024/03/03 05:48:01;;;;;;;12.50;3.20;;;33.30;52.70;;;;;;5047672;28;20255;-73
2024/03/03 05:50:29;;;;;;;11.02;3.17;;;33.30;51.80;;;;;;5046519;28;20241;-75
2024/03/03 05:52:59;;;;;;;11.77;3.22;;;33.00;53.00;;;;;;5043451;28;20243;-71
2024/03/03 05:55:26;;;;;;;8.60;2.92;;;33.50;51.80;;;;;;5046884;28;20655;-72
2024/03/03 05:57:54;;;;;;;13.73;2.75;;;34.20;49.70;;;;;;5040151;28;20291;-75
2024/03/03 06:00:21;;;;;;;11.90;3.00;;;34.20;49.50;;;;;;5043914;28;20172;-74
2024/03/03 06:02:49;;;;;;;10.63;3.10;;;33.90;49.60;;;;;;5041438;28;20246;-76
2024/03/03 06:05:17;;;;;;;8.90;3.00;;;34.30;49.60;;;;;;5041099;28;20279;-72
2024/03/03 06:07:44;;;;;;;9.40;3.03;;;33.90;48.60;;;;;;5044631;28;20191;-72
2024/03/03 06:10:12;;;;;;;12.13;3.50;;;33.80;49.60;;;;;;5047636;28;20184;-73
2024/03/03 06:12:41;;;;;;;7.45;3.00;;;33.80;49.60;;;;;;5019208;28;20579;-72
2024/03/03 06:15:10;;;;;;;11.63;3.28;;;34.30;48.10;;;;;;5046359;28;20536;-75
2024/03/03 06:17:41;;;;;;;10.80;3.33;;;34.70;47.80;;;;;;5045559;28;20194;-71
2024/03/03 06:20:10;;;;;;;8.55;3.17;;;34.50;48.20;;;;;;5044472;28;20181;-70
2024/03/03 06:22:43;;;;;;;13.63;3.35;;;33.90;49.90;;;;;;5043731;28;20189;-73
2024/03/03 06:25:11;;;;;;;10.80;3.55;;;34.60;47.40;;;;;;5046804;28;20180;-71
2024/03/03 06:27:38;;;;;;;12.90;3.50;;;33.90;48.90;;;;;;5049069;28;20187;-72
2024/03/03 06:30:08;;;;;;;10.57;3.17;;;33.80;48.70;;;;;;5042764;28;20172;-71
2024/03/03 06:32:36;;;;;;;9.35;2.33;;;34.00;48.40;;;;;;5041136;28;20266;-73
2024/03/03 06:35:04;;;;;;;10.73;3.08;;;34.30;47.70;;;;;;5041829;28;20176;-74
2024/03/03 06:37:31;;;;;;;8.65;3.10;;;34.50;46.90;;;;;;5040333;28;20202;-72
2024/03/03 06:40:01;;;;;;;8.95;2.80;;;34.20;47.10;;;;;;5040079;28;20191;-73
2024/03/03 06:42:29;;;;;;;8.52;2.55;;;34.40;47.20;;;;;;5042566;28;20188;-73
2024/03/03 06:44:56;;;;;;;9.75;2.60;;;34.60;44.50;;;;;;5027341;28;20203;-74
2024/03/03 06:47:24;;;;;;;10.40;2.40;;;36.10;42.50;;;;;;5051850;28;20183;-77
2024/03/03 06:49:52;;;;;;;5.78;2.38;;;37.70;39.30;;;;;;5039214;28;20180;-77
2024/03/03 06:52:19;;;;;;;9.57;2.63;;;37.40;40.60;;;;;;5044253;28;20681;-74
2024/03/03 06:54:46;;;;;;;15.05;3.22;;;38.30;37.60;;;;;;5044348;28;20183;-77
2024/03/03 06:57:14;;;;;;;14.30;3.08;;;36.90;42.40;;;;;;5045828;28;20188;-76
2024/03/03 06:59:41;;;;;;;12.07;3.38;;;35.50;46.70;;;;;;5041527;28;20179;-76
2024/03/03 07:02:09;;;;;;;13.20;2.80;;;35.30;47.00;;;;;;5046920;28;20171;-76
2024/03/03 07:04:37;;;;;;;10.07;3.53;;;35.90;46.20;;;;;;5046401;28;20183;-75
2024/03/03 07:07:05;;;;;;;9.52;3.20;;;36.70;44.70;;;;;;5046396;28;20641;-73
2024/03/03 07:09:32;;;;;;;11.93;3.40;;;35.50;46.50;;;;;;5042456;28;20180;-75
2024/03/03 07:12:01;;;;;;;9.93;3.15;;;35.30;47.40;;;;;;5042505;28;20697;-75
2024/03/03 07:14:30;;;;;;;14.80;3.80;;;35.60;46.40;;;;;;5040566;28;20229;-75
2024/03/03 07:16:57;;;;;;;15.50;3.78;;;35.60;46.70;;;;;;5048427;28;20176;-76
2024/03/03 07:19:25;;;;;;;10.45;3.03;;;35.80;46.30;;;;;;5039084;28;20198;-74
2024/03/03 07:21:52;;;;;;;11.68;3.83;;;35.70;46.00;;;;;;5042424;28;20631;-75
2024/03/03 07:24:19;;;;;;;13.05;3.50;;;35.10;48.10;;;;;;5040360;28;20235;-74
2024/03/03 07:26:48;;;;;;;13.00;3.30;;;34.90;47.90;;;;;;5048894;28;20176;-77
2024/03/03 07:29:15;;;;;;;9.35;3.03;;;34.80;48.00;;;;;;5044076;28;20187;-76
2024/03/03 07:31:42;;;;;;;13.35;3.42;;;34.60;47.20;;;;;;5041518;28;20246;-73
2024/03/03 07:34:11;;;;;;;8.57;2.80;;;35.20;46.00;;;;;;5040006;28;20283;-76
2024/03/03 07:36:43;;;;;;;9.70;3.10;;;35.10;46.90;;;;;;5046621;28;20204;-77
2024/03/03 07:39:10;;;;;;;13.05;3.20;;;35.80;45.50;;;;;;5047778;28;20227;-74
2024/03/03 07:41:42;;;;;;;11.13;3.83;;;34.60;48.00;;;;;;5049595;28;20192;-75
2024/03/03 07:44:09;;;;;;;10.90;3.75;;;33.60;50.50;;;;;;5048107;28;20299;-77
2024/03/03 07:46:37;;;;;;;10.52;3.42;;;33.10;52.50;;;;;;5042022;28;20290;-74
2024/03/03 07:49:04;;;;;;;14.35;3.45;;;33.00;52.30;;;;;;5032278;28;20172;-75
2024/03/03 07:51:31;;;;;;;15.50;4.25;;;33.00;52.90;;;;;;5051323;28;20183;-75
2024/03/03 07:54:01;;;;;;;9.95;3.78;;;32.80;53.40;;;;;;5044784;28;20215;-75
2024/03/03 07:56:29;;;;;;;13.95;3.58;;;32.30;53.80;;;;;;5048140;28;20186;-76
2024/03/03 07:59:02;;;;;;;12.82;3.92;;;31.50;56.60;;;;;;5044150;28;20275;-75
2024/03/03 08:01:33;;;;;;;15.80;4.22;;;30.70;60.10;;;;;;5044629;28;20180;-74
2024/03/03 08:04:01;;;;;;;15.02;4.53;;;29.90;63.00;;;;;;5041172;28;20187;-76
2024/03/03 08:06:28;;;;;;;13.65;4.75;;;29.30;65.80;;;;;;5045079;28;20272;-74
2024/03/03 08:08:55;;;;;;;16.02;5.00;;;28.80;67.00;;;;;;5049111;28;20262;-74
2024/03/03 08:11:23;;;;;;;11.23;3.60;;;28.30;68.80;;;;;;5049234;28;20259;-73
2024/03/03 08:13:50;;;;;;;15.77;4.20;;;27.90;70.30;;;;;;5048857;28;20274;-74
2024/03/03 08:16:18;;;;;;;20.30;3.80;;;27.70;71.10;;;;;;5048413;28;20186;-73
2024/03/03 08:18:48;;;;;;;17.80;3.77;;;27.30;72.40;;;;;;5047728;28;20188;-73
2024/03/03 08:21:22;;;;;;;13.67;4.17;;;27.20;73.30;;;;;;5045617;28;20188;-72
2024/03/03 08:23:50;;;;;;;14.93;3.70;;;26.80;74.40;;;;;;5039760;28;20340;-73
2024/03/03 08:26:19;;;;;;;21.63;4.07;;;26.70;75.20;;;;;;5042341;28;20193;-74
2024/03/03 08:28:47;;;;;;;11.13;3.67;;;26.60;76.00;;;;;;5046414;28;20188;-72
2024/03/03 08:31:18;;;;;;;14.87;3.63;;;26.30;76.30;;;;;;5043121;28;20304;-74
2024/03/03 08:33:46;;;;;;;12.73;3.73;;;26.30;77.20;;;;;;5043822;28;20204;-75
2024/03/03 08:36:13;;;;;;;15.60;4.40;;;26.10;77.20;;;;;;5046407;28;20195;-72
2024/03/03 08:38:41;;;;;;;16.03;4.07;;;26.00;77.20;;;;;;5045384;28;20641;-75
2024/03/03 08:41:08;;;;;;;15.63;4.10;;;26.00;77.60;;;;;;5046776;28;20638;-73
2024/03/03 08:43:35;;;;;;;16.63;3.70;;;25.90;78.40;;;;;;5045273;28;20268;-73
2024/03/03 08:46:02;;;;;;;14.50;4.17;;;25.90;78.90;;;;;;5044784;28;20235;-73
2024/03/03 08:48:36;;;;;;;13.27;3.33;;;25.80;79.90;;;;;;5037175;28;20724;-75
2024/03/03 08:51:08;;;;;;;15.23;4.10;;;25.80;80.60;;;;;;5045116;28;20180;-76
2024/03/03 08:53:38;;;;;;;16.30;4.57;;;25.80;81.10;;;;;;5041035;28;20545;-73
2024/03/03 08:56:07;;;;;;;16.53;5.33;;;25.80;81.70;;;;;;5043726;28;20200;-74
2024/03/03 08:58:35;;;;;;;15.30;4.93;;;25.80;81.30;;;;;;5047345;28;20266;-74
2024/03/03 09:01:03;;;;;;;15.00;5.20;;;25.70;81.40;;;;;;5048130;28;20176;-74
2024/03/03 09:03:31;;;;;;;18.03;5.33;;;25.70;81.40;;;;;;5047635;28;20184;-76
2024/03/03 09:05:58;;;;;;;19.13;5.90;;;25.70;81.50;;;;;;5046440;28;20188;-73
2024/03/03 09:08:29;;;;;;;19.70;7.20;;;25.60;81.60;;;;;;5027947;28;20225;-73
2024/03/03 09:11:06;;;;;;;18.80;7.60;;;25.60;81.80;;;;;;5045139;28;20238;-73
2024/03/03 09:13:37;;;;;;;16.17;8.40;;;25.60;82.00;;;;;;5049254;28;20697;-75
2024/03/03 09:16:06;;;;;;;23.43;9.30;;;25.70;82.10;;;;;;5044251;28;20176;-75
2024/03/03 09:18:33;;;;;;;18.47;9.83;;;25.60;82.20;;;;;;5047425;28;20195;-77
2024/03/03 09:21:01;;;;;;;15.63;10.17;;;25.70;82.40;;;;;;5042235;28;20180;-73
2024/03/03 09:23:28;;;;;;;24.10;12.50;;;25.60;82.70;;;;;;5027132;28;20188;-73
2024/03/03 09:25:58;;;;;;;20.93;13.13;;;25.50;82.90;;;;;;5042796;28;20658;-74
2024/03/03 09:28:25;;;;;;;24.47;13.87;;;25.50;83.40;;;;;;5041338;28;20188;-74
2024/03/03 09:30:56;;;;;;;19.83;13.77;;;25.40;83.70;;;;;;5043673;28;20723;-75
2024/03/03 09:33:23;;;;;;;19.50;13.57;;;25.30;83.90;;;;;;5045281;28;20276;-73
2024/03/03 09:35:52;;;;;;;21.83;14.77;;;25.30;84.30;;;;;;5047260;28;20216;-74
2024/03/03 09:38:21;;;;;;;19.67;14.57;;;25.40;84.10;;;;;;5045579;28;20195;-76
2024/03/03 09:40:49;;;;;;;19.37;14.13;;;25.40;83.90;;;;;;5043204;28;20218;-75
2024/03/03 09:43:18;;;;;;;21.37;14.13;;;25.40;83.80;;;;;;5032508;28;20200;-75
2024/03/03 09:45:51;;;;;;;21.03;14.63;;;25.40;83.90;;;;;;5040115;28;20630;-73
2024/03/03 09:48:20;;;;;;;20.37;14.70;;;25.40;83.70;;;;;;5039867;28;20226;-74
2024/03/03 09:50:51;;;;;;;17.37;14.50;;;25.40;83.90;;;;;;5043092;28;20544;-74
2024/03/03 09:53:20;;;;;;;24.20;15.93;;;25.30;83.80;;;;;;5043243;28;20212;-75
2024/03/03 09:55:49;;;;;;;20.97;15.17;;;25.30;84.20;;;;;;5032037;28;20192;-75
2024/03/03 09:58:21;;;;;;;16.87;15.13;;;25.30;84.10;;;;;;5045371;28;20215;-77
2024/03/03 10:00:54;;;;;;;23.70;15.90;;;25.30;84.20;;;;;;5028037;28;20238;-74
2024/03/03 10:03:24;;;;;;;21.03;15.40;;;25.30;84.30;;;;;;5035286;28;20537;-75
2024/03/03 10:05:56;;;;;;;19.00;16.00;;;25.30;84.00;;;;;;5039900;28;20172;-77
2024/03/03 10:08:29;;;;;;;18.17;14.10;;;25.20;83.80;;;;;;5046695;28;20253;-75
2024/03/03 10:11:03;;;;;;;17.33;14.20;;;25.20;83.70;;;;;;5045583;28;20184;-74
2024/03/03 10:13:32;;;;;;;15.70;13.63;;;25.10;83.10;;;;;;5045248;28;20212;-74
2024/03/03 10:16:01;;;;;;;22.80;14.83;;;25.10;82.90;;;;;;5045323;28;20665;-73
2024/03/03 10:18:34;;;;;;;16.40;14.73;;;25.20;82.60;;;;;;5047103;28;20184;-75
2024/03/03 10:21:12;;;;;;;15.00;12.80;;;25.20;82.40;;;;;;5040064;28;20655;-74
2024/03/03 10:23:41;;;;;;;15.80;13.07;;;25.10;81.60;;;;;;5046761;28;20648;-75
2024/03/03 10:26:09;;;;;;;13.50;12.17;;;25.00;80.80;;;;;;5047793;28;20176;-74
2024/03/03 10:28:40;;;;;;;16.37;11.33;;;25.00;80.80;;;;;;5046536;28;20203;-75
2024/03/03 10:31:20;;;;;;;15.53;10.87;;;25.00;80.50;;;;;;5039848;28;20227;-74
2024/03/03 10:33:58;;;;;;;17.60;11.53;;;25.00;80.40;;;;;;5039868;28;20859;-74
2024/03/03 10:36:28;;;;;;;18.70;11.03;;;24.90;80.20;;;;;;5040723;28;20246;-73
2024/03/03 10:39:05;;;;;;;16.37;12.77;;;24.90;80.00;;;;;;5047056;28;20213;-74
2024/03/03 10:41:37;;;;;;;16.30;12.90;;;25.00;79.90;;;;;;5044747;28;20192;-74
2024/03/03 10:44:09;;;;;;;16.80;12.50;;;24.90;80.00;;;;;;5044429;28;20191;-75
2024/03/03 10:46:39;;;;;;;16.00;12.60;;;24.80;80.30;;;;;;5019834;28;20181;-76
2024/03/03 10:49:11;;;;;;;20.27;13.47;;;24.80;80.40;;;;;;5040465;28;20621;-75
2024/03/03 10:51:39;;;;;;;17.43;12.83;;;24.80;80.50;;;;;;5043994;28;20267;-74
2024/03/03 10:54:08;;;;;;;16.33;13.37;;;24.70;80.60;;;;;;5028701;28;20799;-74
2024/03/03 10:56:37;;;;;;;13.97;12.50;;;24.70;80.60;;;;;;5045539;28;20192;-75
2024/03/03 10:59:06;;;;;;;17.93;13.27;;;24.60;80.80;;;;;;5047855;28;20592;-74
2024/03/03 11:01:34;;;;;;;14.93;12.83;;;24.60;81.10;;;;;;5049646;28;20180;-74
2024/03/03 11:04:06;;;;;;;19.63;14.37;;;24.60;81.30;;;;;;5049109;28;20204;-73
2024/03/03 11:06:34;;;;;;;16.67;13.83;;;24.50;81.40;;;;;;5051340;28;20207;-73
2024/03/03 11:09:04;;;;;;;17.50;15.00;;;24.50;81.30;;;;;;5050914;28;20212;-74
2024/03/03 11:11:37;;;;;;;19.97;15.90;;;24.40;81.70;;;;;;5051010;28;20255;-74
2024/03/03 11:14:12;;;;;;;19.37;17.27;;;24.40;81.90;;;;;;5051229;28;20215;-73
2024/03/03 11:16:44;;;;;;;20.50;18.50;;;24.40;82.50;;;;;;5047514;28;20254;-74
2024/03/03 11:19:24;;;;;;;22.03;18.77;;;24.40;82.90;;;;;;5047832;28;20194;-74
2024/03/03 11:22:03;;;;;;;23.90;19.00;;;24.30;83.20;;;;;;5046818;28;20262;-74
2024/03/03 11:24:31;;;;;;;23.13;20.73;;;24.30;83.90;;;;;;5050158;28;20325;-75
2024/03/03 11:27:17;;;;;;;25.30;21.90;;;24.30;84.20;;;;;;5048025;28;20178;-74
2024/03/03 11:29:45;;;;;;;27.63;23.73;;;24.20;84.60;;;;;;5051166;28;20187;-75
2024/03/03 11:32:15;;;;;;;29.33;21.50;;;24.20;84.70;;;;;;5048459;28;20577;-76
2024/03/03 11:34:46;;;;;;;29.77;20.60;;;24.20;84.70;;;;;;5044986;28;20768;-73
2024/03/03 11:37:15;;;;;;;23.30;21.30;;;24.10;84.70;;;;;;5050892;28;20314;-75
2024/03/03 11:39:54;;;;;;;26.00;21.13;;;24.10;84.70;;;;;;5046681;28;20537;-76
2024/03/03 11:42:33;;;;;;;28.60;21.83;;;24.10;84.70;;;;;;5049263;28;20184;-74
2024/03/03 11:45:01;;;;;;;24.90;22.17;;;24.10;84.70;;;;;;5046808;28;20187;-73
2024/03/03 11:47:33;;;;;;;22.57;20.53;;;24.10;84.30;;;;;;5046513;28;20536;-72
2024/03/03 11:50:16;;;;;;;23.43;20.97;;;24.10;84.10;;;;;;5047541;28;20940;-74
2024/03/03 11:53:01;;;;;;;25.23;21.10;;;24.10;83.90;;;;;;5050555;28;20708;-73
2024/03/03 11:55:39;;;;;;;22.27;18.60;;;24.00;83.90;;;;;;5048978;28;20399;-74
2024/03/03 11:58:07;;;;;;;25.67;19.97;;;23.90;83.60;;;;;;5049357;28;20263;-76
2024/03/03 12:00:36;;;;;;;26.63;20.03;;;23.90;83.60;;;;;;5049079;28;20199;-75
2024/03/03 12:03:04;;;;;;;21.27;18.10;;;24.00;83.50;;;;;;5050437;28;20192;-78
2024/03/03 12:05:31;;;;;;;21.20;18.10;;;23.90;83.10;;;;;;5049103;28;20179;-74
2024/03/03 12:08:00;;;;;;;24.30;17.73;;;23.80;82.80;;;;;;5054131;28;20186;-73
2024/03/03 12:10:32;;;;;;;22.97;16.80;;;23.80;82.90;;;;;;5045667;28;20309;-73
2024/03/03 12:13:01;;;;;;;22.17;16.27;;;23.80;82.70;;;;;;5041058;28;20212;-74
2024/03/03 12:15:29;;;;;;;20.63;17.80;;;23.80;82.70;;;;;;5041059;28;20267;-77
2024/03/03 12:18:00;;;;;;;26.47;16.57;;;23.80;82.50;;;;;;5051422;28;20689;-73
2024/03/03 12:20:31;;;;;;;20.83;15.13;;;23.70;82.10;;;;;;5044677;28;20183;-75
2024/03/03 12:22:58;;;;;;;21.77;16.63;;;23.70;81.80;;;;;;5042254;28;20183;-75
2024/03/03 12:25:26;;;;;;;20.97;15.07;;;23.70;81.70;;;;;;5041233;28;20177;-75
2024/03/03 12:27:57;;;;;;;25.73;16.07;;;23.70;81.30;;;;;;5046345;28;20177;-74
2024/03/03 12:30:35;;;;;;;20.80;14.23;;;23.70;81.60;;;;;;5041045;28;20188;-76
2024/03/03 12:33:13;;;;;;;21.20;15.23;;;23.60;81.40;;;;;;5045120;28;20220;-77
2024/03/03 12:35:42;;;;;;;23.47;15.53;;;23.60;81.30;;;;;;5040637;28;20207;-76
2024/03/03 12:38:10;;;;;;;24.20;15.47;;;23.60;81.40;;;;;;5046856;28;20184;-74
2024/03/03 12:40:39;;;;;;;25.37;15.90;;;23.50;81.50;;;;;;5045456;28;20397;-75
2024/03/03 12:43:06;;;;;;;25.03;15.53;;;23.60;81.40;;;;;;5047212;28;20176;-75
2024/03/03 12:45:35;;;;;;;25.77;14.73;;;23.50;81.60;;;;;;5047106;28;20773;-75
2024/03/03 12:48:07;;;;;;;22.30;15.67;;;23.50;81.50;;;;;;5032717;28;20184;-75